createdAt,value
2022-11-08T00:00:41.722Z,560.65
2022-11-08T00:03:10.132Z,560.70
2022-11-08T00:05:55.910Z,557.47
2022-11-08T00:08:42.593Z,554.00
2022-11-08T00:11:28.017Z,553.30
2022-11-08T00:13:58.689Z,547.72
2022-11-08T00:16:26.946Z,553.20
2022-11-08T00:18:54.761Z,556.28
2022-11-08T00:21:22.639Z,554.67
2022-11-08T00:23:51.992Z,553.70
2022-11-08T00:26:19.973Z,553.70
2022-11-08T00:28:48.013Z,565.38
2022-11-08T00:31:16.558Z,556.40
2022-11-08T00:33:44.410Z,559.67
2022-11-08T00:36:12.622Z,551.75
2022-11-08T00:38:42.990Z,550.63
2022-11-08T00:41:12.850Z,553.03
2022-11-08T00:43:40.801Z,552.10
2022-11-08T00:46:08.611Z,550.35
2022-11-08T00:48:36.514Z,558.25
2022-11-08T00:51:06.062Z,549.53
2022-11-08T00:53:34.080Z,555.97
2022-11-08T00:56:02.532Z,547.20
2022-11-08T00:58:31.976Z,544.67
2022-11-08T01:01:00.553Z,545.65
2022-11-08T01:03:28.946Z,547.05
2022-11-08T01:05:57.791Z,545.53
2022-11-08T01:08:26.259Z,542.58
2022-11-08T01:10:54.937Z,544.72
2022-11-08T01:13:22.988Z,551.10
2022-11-08T01:15:52.229Z,544.95
2022-11-08T01:18:20.886Z,544.22
2022-11-08T01:20:50.399Z,547.63
2022-11-08T01:23:19.364Z,545.50
2022-11-08T01:25:49.193Z,543.95
2022-11-08T01:28:18.513Z,547.63
2022-11-08T01:30:47.393Z,540.95
2022-11-08T01:33:16.868Z,547.55
2022-11-08T01:35:48.171Z,543.75
2022-11-08T01:38:16.829Z,551.33
2022-11-08T01:40:46.709Z,539.47
2022-11-08T01:43:36.221Z,555.17
2022-11-08T01:46:33.509Z,543.70
2022-11-08T01:49:25.611Z,542.83
2022-11-08T01:51:59.453Z,544.03
2022-11-08T01:54:34.208Z,543.10
2022-11-08T01:57:05.760Z,549.28
2022-11-08T01:59:36.508Z,546.33
2022-11-08T02:02:05.508Z,542.10
2022-11-08T02:04:35.550Z,544.35
2022-11-08T02:07:06.113Z,542.50
2022-11-08T02:09:36.067Z,546.15
2022-11-08T02:12:04.688Z,544.88
2022-11-08T02:14:33.242Z,552.15
2022-11-08T02:17:01.879Z,540.72
2022-11-08T02:19:40.108Z,539.17
2022-11-08T02:22:17.565Z,544.90
2022-11-08T02:24:47.967Z,542.42
2022-11-08T02:27:16.657Z,549.05
2022-11-08T02:29:45.553Z,545.65
2022-11-08T02:32:14.121Z,544.42
2022-11-08T02:34:45.652Z,544.90
2022-11-08T02:37:17.367Z,546.00
2022-11-08T02:39:47.968Z,543.63
2022-11-08T02:42:18.631Z,542.58
2022-11-08T02:44:46.468Z,544.53
2022-11-08T02:47:14.764Z,543.38
2022-11-08T02:49:42.708Z,543.90
2022-11-08T02:52:10.650Z,539.05
2022-11-08T02:54:38.548Z,544.47
2022-11-08T02:57:07.752Z,543.17
2022-11-08T02:59:35.767Z,542.47
2022-11-08T03:02:03.701Z,544.65
2022-11-08T03:04:31.696Z,540.28
2022-11-08T03:06:59.620Z,541.28
2022-11-08T03:09:28.154Z,533.40
2022-11-08T03:11:55.984Z,537.58
2022-11-08T03:14:25.385Z,550.75
2022-11-08T03:16:53.207Z,547.90
2022-11-08T03:19:21.053Z,545.60
2022-11-08T03:21:48.884Z,545.22
2022-11-08T03:24:17.049Z,541.65
2022-11-08T03:26:44.872Z,543.10
2022-11-08T03:29:12.771Z,546.67
2022-11-08T03:31:41.945Z,544.90
2022-11-08T03:34:10.668Z,546.42
2022-11-08T03:36:38.493Z,544.53
2022-11-08T03:39:06.356Z,549.55
2022-11-08T03:41:34.310Z,548.03
2022-11-08T03:44:02.189Z,543.38
2022-11-08T03:46:30.072Z,537.17
2022-11-08T03:48:59.231Z,544.53
2022-11-08T03:51:27.128Z,543.25
2022-11-08T03:53:55.118Z,541.03
2022-11-08T03:56:22.978Z,563.65
2022-11-08T03:58:51.105Z,542.70
2022-11-08T04:01:19.084Z,552.38
2022-11-08T04:03:47.031Z,542.58
2022-11-08T04:06:16.351Z,547.40
2022-11-08T04:08:44.199Z,543.38
2022-11-08T04:11:29.566Z,549.78
2022-11-08T04:14:15.134Z,543.08
2022-11-08T04:16:43.436Z,543.50
2022-11-08T04:19:29.070Z,554.20
2022-11-08T04:21:58.745Z,541.30
2022-11-08T04:24:27.072Z,546.08
2022-11-08T04:26:55.050Z,548.22
2022-11-08T04:29:22.926Z,545.58
2022-11-08T04:31:50.941Z,551.00
2022-11-08T04:34:18.789Z,548.92
2022-11-08T04:36:46.896Z,546.05
2022-11-08T04:39:16.301Z,545.78
2022-11-08T04:41:44.154Z,547.80
2022-11-08T04:44:12.008Z,549.13
2022-11-08T04:46:39.824Z,546.97
2022-11-08T04:49:07.649Z,542.95
2022-11-08T04:51:35.537Z,544.00
2022-11-08T04:54:06.361Z,541.40
2022-11-08T04:56:35.857Z,542.83
2022-11-08T04:59:06.245Z,547.25
2022-11-08T05:01:37.466Z,546.35
2022-11-08T05:04:05.538Z,548.95
2022-11-08T05:06:33.465Z,545.33
2022-11-08T05:09:01.798Z,545.95
2022-11-08T05:11:31.223Z,546.28
2022-11-08T05:14:00.646Z,543.15
2022-11-08T05:16:30.420Z,550.85
2022-11-08T05:18:58.590Z,543.53
2022-11-08T05:21:44.120Z,546.88
2022-11-08T05:24:14.062Z,547.05
2022-11-08T05:26:47.760Z,547.38
2022-11-08T05:29:17.815Z,543.80
2022-11-08T05:31:45.816Z,550.88
2022-11-08T05:34:13.864Z,551.85
2022-11-08T05:36:41.671Z,601.90
2022-11-08T05:39:09.509Z,561.72
2022-11-08T05:41:37.375Z,534.08
2022-11-08T05:44:05.229Z,549.17
2022-11-08T05:46:35.286Z,545.67
2022-11-08T05:49:03.188Z,546.58
2022-11-08T05:51:31.400Z,549.03
2022-11-08T05:53:59.442Z,546.28
2022-11-08T05:56:27.296Z,546.92
2022-11-08T05:58:55.179Z,539.50
2022-11-08T06:01:23.063Z,535.38
2022-11-08T06:03:52.432Z,546.05
2022-11-08T06:06:22.324Z,545.33
2022-11-08T06:08:51.789Z,543.58
2022-11-08T06:11:23.468Z,540.55
2022-11-08T06:13:51.927Z,548.08
2022-11-08T06:16:21.696Z,541.20
2022-11-08T06:18:49.846Z,553.83
2022-11-08T06:21:20.818Z,559.53
2022-11-08T06:23:48.941Z,550.63
2022-11-08T06:26:17.063Z,537.97
2022-11-08T06:28:44.941Z,537.05
2022-11-08T06:31:12.792Z,538.13
2022-11-08T06:33:40.661Z,543.88
2022-11-08T06:36:09.101Z,548.92
2022-11-08T06:38:38.358Z,544.47
2022-11-08T06:41:06.476Z,541.75
2022-11-08T06:43:34.416Z,544.20
2022-11-08T06:46:03.122Z,537.50
2022-11-08T06:48:35.809Z,534.90
2022-11-08T06:51:04.218Z,545.13
2022-11-08T06:53:32.410Z,546.97
2022-11-08T06:56:02.253Z,548.95
2022-11-08T06:58:30.543Z,551.80
2022-11-08T07:00:58.626Z,551.72
2022-11-08T07:03:29.002Z,555.65
2022-11-08T07:05:57.978Z,558.13
2022-11-08T07:08:26.131Z,542.92
2022-11-08T07:10:54.958Z,538.22
2022-11-08T07:13:24.200Z,553.70
2022-11-08T07:15:52.093Z,552.03
2022-11-08T07:18:20.888Z,543.97
2022-11-08T07:20:48.872Z,540.50
2022-11-08T07:23:16.861Z,554.80
2022-11-08T07:25:44.766Z,546.00
2022-11-08T07:28:17.781Z,552.78
2022-11-08T07:30:47.927Z,541.88
2022-11-08T07:33:17.495Z,546.72
2022-11-08T07:35:48.062Z,541.95
2022-11-08T07:38:16.167Z,541.78
2022-11-08T07:40:44.928Z,541.53
2022-11-08T07:43:13.319Z,545.38
2022-11-08T07:45:42.192Z,544.40
2022-11-08T07:48:13.708Z,544.38
2022-11-08T07:50:42.775Z,547.45
2022-11-08T07:53:11.115Z,552.78
2022-11-08T07:55:39.602Z,538.45
2022-11-08T07:58:07.845Z,571.65
2022-11-08T08:00:37.521Z,555.15
2022-11-08T08:03:07.986Z,553.17
2022-11-08T08:05:39.398Z,546.10
2022-11-08T08:08:07.786Z,548.20
2022-11-08T08:10:36.657Z,546.50
2022-11-08T08:13:04.778Z,540.55
2022-11-08T08:15:33.273Z,549.00
2022-11-08T08:18:02.498Z,542.30
2022-11-08T08:20:31.452Z,559.88
2022-11-08T08:23:01.483Z,550.65
2022-11-08T08:25:31.009Z,547.00
2022-11-08T08:28:01.052Z,542.72
2022-11-08T08:30:30.718Z,541.47
2022-11-08T08:33:28.374Z,543.03
2022-11-08T08:35:55.296Z,546.90
2022-11-08T08:38:24.584Z,556.47
2022-11-08T08:40:52.952Z,552.28
2022-11-08T08:43:21.500Z,560.97
2022-11-08T08:45:50.123Z,549.58
2022-11-08T08:48:18.260Z,549.28
2022-11-08T08:50:46.315Z,553.97
2022-11-08T08:53:14.281Z,559.58
2022-11-08T08:55:43.690Z,554.90
2022-11-08T08:58:12.077Z,562.75
2022-11-08T09:03:27.789Z,555.17
2022-11-08T09:05:57.712Z,554.28
2022-11-08T09:08:25.877Z,553.05
2022-11-08T09:10:56.282Z,565.40
2022-11-08T09:13:26.155Z,560.65
2022-11-08T09:15:54.309Z,551.05
2022-11-08T09:18:22.972Z,557.28
2022-11-08T09:20:50.953Z,553.83
2022-11-08T09:23:19.166Z,566.35
2022-11-08T09:25:47.271Z,558.22
2022-11-08T09:28:16.560Z,562.10
2022-11-08T09:30:44.430Z,562.47
2022-11-08T09:33:12.251Z,554.63
2022-11-08T09:35:40.103Z,558.97
2022-11-08T09:38:08.537Z,565.35
2022-11-08T09:40:40.935Z,566.67
2022-11-08T09:43:29.356Z,567.60
2022-11-08T09:45:57.764Z,562.03
2022-11-08T09:48:31.507Z,565.40
2022-11-08T09:51:05.260Z,571.70
2022-11-08T09:53:39.110Z,569.85
2022-11-08T09:56:15.137Z,563.03
2022-11-08T09:58:51.708Z,559.65
2022-11-08T10:01:24.484Z,556.25
2022-11-08T10:03:58.309Z,573.72
2022-11-08T10:06:39.308Z,563.28
2022-11-08T10:09:23.423Z,567.83
2022-11-08T10:12:04.247Z,561.90
2022-11-08T10:14:52.382Z,558.75
2022-11-08T10:17:41.269Z,564.33
2022-11-08T10:20:18.980Z,573.53
2022-11-08T10:22:55.660Z,570.55
2022-11-08T10:25:28.137Z,570.33
2022-11-08T10:28:01.003Z,566.67
2022-11-08T10:30:34.598Z,568.80
2022-11-08T10:33:02.852Z,566.75
2022-11-08T10:35:37.360Z,575.58
2022-11-08T10:38:18.001Z,566.17
2022-11-08T10:40:55.318Z,571.22
2022-11-08T10:43:29.684Z,570.80
2022-11-08T10:45:58.943Z,568.45
2022-11-08T10:48:26.775Z,568.25
2022-11-08T10:50:55.637Z,580.38
2022-11-08T10:53:31.576Z,573.67
2022-11-08T10:56:04.407Z,573.33
2022-11-08T10:58:38.611Z,571.65
2022-11-08T11:01:21.843Z,580.05
2022-11-08T11:03:54.024Z,574.80
2022-11-08T11:06:27.579Z,579.38
2022-11-08T11:09:16.275Z,568.53
2022-11-08T11:11:59.370Z,582.28
2022-11-08T11:14:32.702Z,578.45
2022-11-08T11:17:07.669Z,565.97
2022-11-08T11:19:40.747Z,565.75
2022-11-08T11:22:10.129Z,571.83
2022-11-08T11:24:47.592Z,569.83
2022-11-08T11:27:23.050Z,584.38
2022-11-08T11:29:50.972Z,557.65
2022-11-08T11:32:26.059Z,572.75
2022-11-08T11:34:57.552Z,564.63
2022-11-08T11:37:40.384Z,569.90
2022-11-08T11:40:17.069Z,568.53
2022-11-08T11:42:55.393Z,575.95
2022-11-08T11:45:30.117Z,566.78
2022-11-08T11:48:02.699Z,571.25
2022-11-08T11:50:33.685Z,577.88
2022-11-08T11:53:05.472Z,584.55
2022-11-08T11:55:48.312Z,586.22
2022-11-08T11:58:33.246Z,570.78
2022-11-08T12:01:14.788Z,577.15
2022-11-08T12:04:14.295Z,575.80
2022-11-08T12:06:49.917Z,572.90
2022-11-08T12:09:30.035Z,577.30
2022-11-08T12:12:10.368Z,579.95
2022-11-08T12:14:50.169Z,581.03
2022-11-08T12:17:39.195Z,575.03
2022-11-08T12:20:26.916Z,579.10
2022-11-08T12:23:14.629Z,597.75
2022-11-08T12:25:49.100Z,585.28
2022-11-08T12:28:37.463Z,577.72
2022-11-08T12:31:20.098Z,585.42
2022-11-08T12:33:58.232Z,582.22
2022-11-08T12:36:36.576Z,583.15
2022-11-08T12:39:19.216Z,588.35
2022-11-08T12:42:03.133Z,581.97
2022-11-08T12:44:54.960Z,586.03
2022-11-08T12:47:34.766Z,584.55
2022-11-08T12:50:20.935Z,587.03
2022-11-08T12:53:11.653Z,582.50
2022-11-08T12:55:43.199Z,581.25
2022-11-08T12:58:30.436Z,592.20
2022-11-08T13:01:07.549Z,592.20
2022-11-08T13:04:20.079Z,577.97
2022-11-08T13:06:55.483Z,579.60
2022-11-08T13:09:41.494Z,583.35
2022-11-08T13:12:23.792Z,570.03
2022-11-08T13:14:53.704Z,578.70
2022-11-08T13:17:26.821Z,583.38
2022-11-08T13:20:05.823Z,578.67
2022-11-08T13:23:00.250Z,575.40
2022-11-08T13:25:38.319Z,579.20
2022-11-08T13:28:41.303Z,591.67
2022-11-08T13:31:20.918Z,562.22
2022-11-08T13:34:13.397Z,555.13
2022-11-08T13:36:52.133Z,563.85
2022-11-08T13:39:34.955Z,571.45
2022-11-08T13:42:26.081Z,570.53
2022-11-08T13:45:14.400Z,574.50
2022-11-08T13:48:01.668Z,571.72
2022-11-08T13:50:52.319Z,589.90
2022-11-08T13:53:45.430Z,586.40
2022-11-08T13:56:27.104Z,590.30
2022-11-08T13:58:56.307Z,582.03
2022-11-08T14:01:59.263Z,582.28
2022-11-08T14:04:29.681Z,585.53
2022-11-08T14:07:07.592Z,591.45
2022-11-08T14:09:48.596Z,574.72
2022-11-08T14:12:25.755Z,579.05
2022-11-08T14:15:07.302Z,575.67
2022-11-08T14:17:47.103Z,569.22
2022-11-08T14:20:39.739Z,573.17
2022-11-08T14:23:22.273Z,572.00
2022-11-08T14:25:54.564Z,574.03
2022-11-08T14:28:25.048Z,583.65
2022-11-08T14:30:54.570Z,579.17
2022-11-08T14:33:23.915Z,584.42
2022-11-08T14:35:58.393Z,580.65
2022-11-08T14:38:27.003Z,582.78
2022-11-08T14:40:57.040Z,589.40
2022-11-08T14:43:26.956Z,580.92
2022-11-08T14:45:58.142Z,582.38
2022-11-08T14:48:29.479Z,577.55
2022-11-08T14:51:04.419Z,583.50
2022-11-08T14:53:34.661Z,586.15
2022-11-08T14:56:20.891Z,586.15
2022-11-08T14:58:50.683Z,574.42
2022-11-08T15:01:23.294Z,581.05
2022-11-08T15:03:55.558Z,586.25
2022-11-08T15:06:35.056Z,574.63
2022-11-08T15:09:04.934Z,576.90
2022-11-08T15:11:34.634Z,576.10
2022-11-08T15:14:04.581Z,577.58
2022-11-08T15:16:42.500Z,595.13
2022-11-08T15:19:28.539Z,572.83
2022-11-08T15:21:56.577Z,570.60
2022-11-08T15:24:34.878Z,572.78
2022-11-08T15:27:08.229Z,570.78
2022-11-08T15:29:53.471Z,574.72
2022-11-08T15:32:25.529Z,566.47
2022-11-08T15:34:58.722Z,565.72
2022-11-08T15:37:30.840Z,582.80
2022-11-08T15:40:02.756Z,566.35
2022-11-08T15:42:31.563Z,567.63
2022-11-08T15:45:04.912Z,570.08
2022-11-08T15:47:46.711Z,574.22
2022-11-08T15:50:17.427Z,573.70
2022-11-08T15:52:46.573Z,579.38
2022-11-08T15:55:16.711Z,573.83
2022-11-08T15:57:46.692Z,612.63
2022-11-08T16:00:18.146Z,583.80
2022-11-08T16:02:47.527Z,584.38
2022-11-08T16:05:17.424Z,596.88
2022-11-08T16:07:46.214Z,580.13
2022-11-08T16:10:16.133Z,583.40
2022-11-08T16:12:46.293Z,585.33
2022-11-08T16:15:17.002Z,582.97
2022-11-08T16:17:45.122Z,582.97
2022-11-08T16:20:27.610Z,578.17
2022-11-08T16:22:56.248Z,579.15
2022-11-08T16:25:25.962Z,578.42
2022-11-08T16:27:56.960Z,572.72
2022-11-08T16:30:25.317Z,579.45
2022-11-08T16:32:53.213Z,586.25
2022-11-08T16:35:22.825Z,582.60
2022-11-08T16:37:51.672Z,576.53
2022-11-08T16:40:21.731Z,571.63
2022-11-08T16:42:51.406Z,581.38
2022-11-08T16:45:37.193Z,591.15
2022-11-08T16:48:16.136Z,589.47
2022-11-08T16:50:46.228Z,589.72
2022-11-08T16:53:17.498Z,603.42
2022-11-08T16:55:45.711Z,591.35
2022-11-08T16:58:13.545Z,570.97
2022-11-08T17:00:44.259Z,583.88
2022-11-08T17:03:21.062Z,592.25
2022-11-08T17:05:50.502Z,580.15
2022-11-08T17:08:18.839Z,581.70
2022-11-08T17:10:46.982Z,579.17
2022-11-08T17:13:19.755Z,587.50
2022-11-08T17:15:49.257Z,589.58
2022-11-08T17:18:19.677Z,579.05
2022-11-08T17:20:51.715Z,580.53
2022-11-08T17:23:22.331Z,586.50
2022-11-08T17:25:50.207Z,576.38
2022-11-08T17:28:18.498Z,579.47
2022-11-08T17:30:46.634Z,582.40
2022-11-08T17:33:15.126Z,593.85
2022-11-08T17:35:44.694Z,587.88
2022-11-08T17:38:20.581Z,576.58
2022-11-08T17:40:48.406Z,571.63
2022-11-08T17:43:16.582Z,582.00
2022-11-08T17:45:44.664Z,568.08
2022-11-08T17:48:12.554Z,577.45
2022-11-08T17:50:40.474Z,575.00
2022-11-08T17:53:08.289Z,583.00
2022-11-08T17:55:37.511Z,575.95
2022-11-08T17:58:05.326Z,576.20
2022-11-08T18:00:33.216Z,574.78
2022-11-08T18:03:01.083Z,575.05
2022-11-08T18:05:28.911Z,582.53
2022-11-08T18:07:56.775Z,573.08
2022-11-08T18:10:24.564Z,579.95
2022-11-08T18:12:53.757Z,576.67
2022-11-08T18:15:21.573Z,574.33
2022-11-08T18:17:49.411Z,572.97
2022-11-08T18:20:17.511Z,582.33
2022-11-08T18:22:45.473Z,580.47
2022-11-08T18:25:13.251Z,581.17
2022-11-08T18:27:41.044Z,587.15
2022-11-08T18:30:12.107Z,583.95
2022-11-08T18:32:39.932Z,580.40
2022-11-08T18:35:11.139Z,579.30
2022-11-08T18:37:38.945Z,574.75
2022-11-08T18:40:08.264Z,584.78
2022-11-08T18:42:36.120Z,584.88
2022-11-08T18:45:04.222Z,575.55
2022-11-08T18:47:33.515Z,572.03
2022-11-08T18:50:02.402Z,579.08
2022-11-08T18:52:30.932Z,571.53
2022-11-08T18:54:58.702Z,578.50
2022-11-08T18:57:26.478Z,569.55
2022-11-08T19:00:00.703Z,579.25
2022-11-08T19:02:29.141Z,566.65
2022-11-08T19:04:58.477Z,563.30
2022-11-08T19:07:26.327Z,579.80
2022-11-08T19:09:54.207Z,581.55
2022-11-08T19:12:22.384Z,574.80
2022-11-08T19:14:50.199Z,576.08
2022-11-08T19:17:18.065Z,578.45
2022-11-08T19:19:45.909Z,570.85
2022-11-08T19:22:15.263Z,579.25
2022-11-08T19:24:45.109Z,572.47
2022-11-08T19:27:14.658Z,576.55
2022-11-08T19:29:44.144Z,570.75
2022-11-08T19:32:14.747Z,577.40
2022-11-08T19:34:45.397Z,567.75
2022-11-08T19:37:14.342Z,573.03
2022-11-08T19:39:43.952Z,574.40
2022-11-08T19:42:18.047Z,578.17
2022-11-08T19:44:54.937Z,572.83
2022-11-08T19:47:22.990Z,578.63
2022-11-08T19:49:54.106Z,576.92
2022-11-08T19:52:25.324Z,572.55
2022-11-08T19:54:59.550Z,576.38
2022-11-08T19:57:29.730Z,570.95
2022-11-08T19:59:59.509Z,571.45
2022-11-08T20:02:28.552Z,569.13
2022-11-08T20:04:56.400Z,566.28
2022-11-08T20:07:24.374Z,567.92
2022-11-08T20:09:52.373Z,569.95
2022-11-08T20:12:21.716Z,572.70
2022-11-08T20:14:50.507Z,567.97
2022-11-08T20:17:20.142Z,569.40
2022-11-08T20:19:50.547Z,568.15
2022-11-08T20:22:18.498Z,570.35
2022-11-08T20:25:00.494Z,573.28
2022-11-08T20:27:29.896Z,575.55
2022-11-08T20:30:01.966Z,568.63
2022-11-08T20:32:34.256Z,563.45
2022-11-08T20:35:04.192Z,570.10
2022-11-08T20:37:34.119Z,572.13
2022-11-08T20:40:02.183Z,571.08
2022-11-08T20:42:45.570Z,567.15
2022-11-08T20:45:15.464Z,572.08
2022-11-08T20:47:43.490Z,583.88
2022-11-08T20:50:11.755Z,572.33
2022-11-08T20:52:51.619Z,568.22
2022-11-08T20:55:29.417Z,570.40
2022-11-08T20:58:09.993Z,569.75
2022-11-08T21:00:57.719Z,571.42
2022-11-08T21:03:34.417Z,570.75
2022-11-08T21:06:06.792Z,564.10
2022-11-08T21:11:27.772Z,566.08
2022-11-08T21:13:59.263Z,565.78
2022-11-08T21:16:30.592Z,563.10
2022-11-08T21:18:59.819Z,575.00
2022-11-08T21:21:28.128Z,569.65
2022-11-08T21:23:56.126Z,566.92
2022-11-08T21:26:24.315Z,570.00
2022-11-08T21:28:52.340Z,573.22
2022-11-08T21:31:21.567Z,573.70
2022-11-08T21:33:49.447Z,571.50
2022-11-08T21:36:18.300Z,568.05
2022-11-08T21:38:46.144Z,567.70
2022-11-08T21:41:14.304Z,574.15
2022-11-08T21:43:44.058Z,566.30
2022-11-08T21:46:19.158Z,572.55
2022-11-08T21:48:54.735Z,569.58
2022-11-08T21:51:22.652Z,571.45
2022-11-08T21:53:54.806Z,567.90
2022-11-08T21:56:23.853Z,581.35
2022-11-08T21:58:52.673Z,578.40
2022-11-08T22:01:24.132Z,564.25
2022-11-08T22:03:56.266Z,577.22
2022-11-08T22:06:24.153Z,570.35
2022-11-08T22:08:52.038Z,568.55
2022-11-08T22:11:19.950Z,568.50
2022-11-08T22:13:47.808Z,568.35
2022-11-08T22:16:15.637Z,571.88
2022-11-08T22:19:03.486Z,569.40
2022-11-08T22:21:43.255Z,580.53
2022-11-08T22:24:13.301Z,572.83
2022-11-08T22:26:41.553Z,569.65
2022-11-08T22:29:10.151Z,574.47
2022-11-08T22:31:38.355Z,565.58
2022-11-08T22:34:07.968Z,572.40
2022-11-08T22:36:42.950Z,569.60
2022-11-08T22:39:13.510Z,565.63
2022-11-08T22:41:41.305Z,569.35
2022-11-08T22:44:12.360Z,568.58
2022-11-08T22:46:40.911Z,572.45
2022-11-08T22:49:08.727Z,567.22
2022-11-08T22:51:37.966Z,572.63
2022-11-08T22:54:06.247Z,567.67
2022-11-08T22:56:34.428Z,577.35
2022-11-08T22:59:02.973Z,590.45
2022-11-08T23:01:30.837Z,570.60
2022-11-08T23:03:58.722Z,577.75
2022-11-08T23:06:26.691Z,579.67
2022-11-08T23:08:56.041Z,578.45
2022-11-08T23:11:52.945Z,589.83
2022-11-08T23:14:38.322Z,565.88
2022-11-08T23:17:09.467Z,579.65
2022-11-08T23:19:54.658Z,575.28
2022-11-08T23:22:40.452Z,579.47
2022-11-08T23:25:10.006Z,563.38
2022-11-08T23:27:55.491Z,577.80
2022-11-08T23:30:41.023Z,571.10
2022-11-08T23:33:08.872Z,579.45
2022-11-08T23:35:36.719Z,575.17
2022-11-08T23:38:04.521Z,584.17
2022-11-08T23:40:51.206Z,582.72
2022-11-08T23:43:38.110Z,589.92
2022-11-08T23:46:08.141Z,574.50
2022-11-08T23:48:36.600Z,577.60
2022-11-08T23:51:05.467Z,579.47
2022-11-08T23:53:34.782Z,576.42
2022-11-08T23:56:04.022Z,579.55
2022-11-08T23:58:32.742Z,577.90
